Nbp Island — V2FH3 — position and weather

sailwx.info

Track history (hours):
 
Tides and Currents Weather Stations Pressure Air Temp Water Temp Dewpoint Dewpoint Depression Visibility Wind Speed Wind Dir Waves Ship Positions

Nbp Island

Last reported at 2016-Jul-27 06:12 UTC. Time now 2016-Jul-28 01:02 UTC.
Position N 37°49' E 024°28'.

Length 107 m; draft 7.3 m.

Type: Cargo ship. MMSI: 305674000.

Date/timePositionNaut miles runAvg speedWind from/ knotsBaromVisibWave heightAir tempDewpointWater temp
2016-Jul-27 06:12N 37°49' E 024°28'811.3
2016-Jul-27 05:29N 37°44' E 024°20'2211.4
2016-Jul-27 03:32N 37°27' E 024°03'1211.4
2016-Jul-27 02:28N 37°16' E 023°55'1011.0
2016-Jul-27 01:33N 37°08' E 023°49'1111.0
2016-Jul-27 00:33N 36°58' E 023°42'1211.3
2016-Jul-26 23:31N 36°48' E 023°34'41711.3
2016-Jul-25 10:33N 36°28' E 014°55'1111.2
2016-Jul-25 09:33N 36°28' E 014°41'1111.2
2016-Jul-25 08:33N 36°28' E 014°27'1111.3
2016-Jul-25 07:33N 36°29' E 014°13'1212.1
2016-Jul-25 06:33N 36°32' E 013°59'2411.9
2016-Jul-25 04:33N 36°41' E 013°31'1211.7
2016-Jul-25 03:33N 36°45' E 013°17'1211.7
2016-Jul-25 02:33N 36°49' E 013°04'1111.3
2016-Jul-25 01:33N 36°52' E 012°50'1111.1
2016-Jul-25 00:33N 36°56' E 012°37'53411.1
2016-Jul-23 00:31N 36°47' E 001°30'1212.3
2016-Jul-22 23:33N 36°46' E 001°15'1312.0
2016-Jul-22 22:26N 36°43' E 000°59'1011.5
2016-Jul-22 21:32N 36°42' E 000°46'1111.6
2016-Jul-22 20:33N 36°40' E 000°32'1211.7
2016-Jul-22 19:33N 36°37' E 000°18'4911.7
2016-Jul-22 15:19N 36°31' W 000°43'4611.6
2016-Jul-22 11:20N 36°24' W 001°40'16911.9
2016-Jul-21 21:10N 36°00' W 005°07'813.4
2016-Jul-21 20:33N 35°59' W 005°17'4414.2
2016-Jul-21 17:27N 35°54' W 006°11'2412.3
2016-Jul-21 15:29N 35°60' W 006°40'1410.8
2016-Jul-21 14:11N 36°03' W 006°57'2111.6
2016-Jul-21 12:22N 36°09' W 007°22'911.1
2016-Jul-21 11:33N 36°11' W 007°33'1411.4
2016-Jul-21 10:21N 36°14' W 007°49'911.4
2016-Jul-21 09:33N 36°17' W 008°00'1111.4
2016-Jul-21 08:33N 36°19' W 008°14'1211.5
2016-Jul-21 07:33N 36°23' W 008°28'1111.4
2016-Jul-21 06:33N 36°26' W 008°41'1211.2
2016-Jul-21 05:29N 36°29' W 008°56'1011.3
2016-Jul-21 04:33N 36°31' W 009°08'1210.9
2016-Jul-21 03:29N 36°36' W 009°21'1111.2
2016-Jul-21 02:33N 36°44' W 009°30'1111.2
2016-Jul-21 01:33N 36°55' W 009°35'1211.7
2016-Jul-21 00:33N 37°06' W 009°38'1211.7
2016-Jul-20 23:33N 37°17' W 009°41'1212.1
2016-Jul-20 22:33N 37°29' W 009°45'4 3.7
2016-Jul-20 21:33N 37°33' W 009°46'1111.2
2016-Jul-20 20:33N 37°44' W 009°49'1111.4
2016-Jul-20 19:33N 37°55' W 009°52'1411.7
2016-Jul-20 18:19N 38°09' W 009°57'912.1
2016-Jul-20 17:33N 38°18' W 009°60'1212.4
2016-Jul-20 16:33N 38°30' W 010°03'1212.2
2016-Jul-20 15:32N 38°42' W 010°06'9611.9
2016-Jul-20 07:27N 40°18' W 010°07'263 8.7
2016-Jul-19 01:05N 43°41' W 006°22'611.7
2016-Jul-19 00:33N 43°40' W 006°14'  
Track history (hours):
 
Tides and Currents Weather Stations Pressure Air Temp Water Temp Dewpoint Dewpoint Depression Visibility Wind Speed Wind Dir Waves Ship Positions

Nbp Island

Last reported at 2016-Jul-27 06:12 UTC. Time now 2016-Jul-28 01:02 UTC.
Position N 37°49' E 024°28'.

Length 107 m; draft 7.3 m.

Type: Cargo ship. MMSI: 305674000.

Date/timePositionNaut miles runAvg speedWind from/ knotsBaromVisibWave heightAir tempDewpointWater temp
2016-Jul-27 06:12N 37°49' E 024°28'811.3
2016-Jul-27 05:29N 37°44' E 024°20'2211.4
2016-Jul-27 03:32N 37°27' E 024°03'1211.4
2016-Jul-27 02:28N 37°16' E 023°55'1011.0
2016-Jul-27 01:33N 37°08' E 023°49'1111.0
2016-Jul-27 00:33N 36°58' E 023°42'1211.3
2016-Jul-26 23:31N 36°48' E 023°34'41711.3
2016-Jul-25 10:33N 36°28' E 014°55'1111.2
2016-Jul-25 09:33N 36°28' E 014°41'1111.2
2016-Jul-25 08:33N 36°28' E 014°27'1111.3
2016-Jul-25 07:33N 36°29' E 014°13'1212.1
2016-Jul-25 06:33N 36°32' E 013°59'2411.9
2016-Jul-25 04:33N 36°41' E 013°31'1211.7
2016-Jul-25 03:33N 36°45' E 013°17'1211.7
2016-Jul-25 02:33N 36°49' E 013°04'1111.3
2016-Jul-25 01:33N 36°52' E 012°50'1111.1
2016-Jul-25 00:33N 36°56' E 012°37'53411.1
2016-Jul-23 00:31N 36°47' E 001°30'1212.3
2016-Jul-22 23:33N 36°46' E 001°15'1312.0
2016-Jul-22 22:26N 36°43' E 000°59'1011.5
2016-Jul-22 21:32N 36°42' E 000°46'1111.6
2016-Jul-22 20:33N 36°40' E 000°32'1211.7
2016-Jul-22 19:33N 36°37' E 000°18'4911.7
2016-Jul-22 15:19N 36°31' W 000°43'4611.6
2016-Jul-22 11:20N 36°24' W 001°40'16911.9
2016-Jul-21 21:10N 36°00' W 005°07'813.4
2016-Jul-21 20:33N 35°59' W 005°17'4414.2
2016-Jul-21 17:27N 35°54' W 006°11'2412.3
2016-Jul-21 15:29N 35°60' W 006°40'1410.8
2016-Jul-21 14:11N 36°03' W 006°57'2111.6
2016-Jul-21 12:22N 36°09' W 007°22'911.1
2016-Jul-21 11:33N 36°11' W 007°33'1411.4
2016-Jul-21 10:21N 36°14' W 007°49'911.4
2016-Jul-21 09:33N 36°17' W 008°00'1111.4
2016-Jul-21 08:33N 36°19' W 008°14'1211.5
2016-Jul-21 07:33N 36°23' W 008°28'1111.4
2016-Jul-21 06:33N 36°26' W 008°41'1211.2
2016-Jul-21 05:29N 36°29' W 008°56'1011.3
2016-Jul-21 04:33N 36°31' W 009°08'1210.9
2016-Jul-21 03:29N 36°36' W 009°21'1111.2
2016-Jul-21 02:33N 36°44' W 009°30'1111.2
2016-Jul-21 01:33N 36°55' W 009°35'1211.7
2016-Jul-21 00:33N 37°06' W 009°38'1211.7
2016-Jul-20 23:33N 37°17' W 009°41'1212.1
2016-Jul-20 22:33N 37°29' W 009°45'4 3.7
2016-Jul-20 21:33N 37°33' W 009°46'1111.2
2016-Jul-20 20:33N 37°44' W 009°49'1111.4
2016-Jul-20 19:33N 37°55' W 009°52'1411.7
2016-Jul-20 18:19N 38°09' W 009°57'912.1
2016-Jul-20 17:33N 38°18' W 009°60'1212.4
2016-Jul-20 16:33N 38°30' W 010°03'1212.2
2016-Jul-20 15:32N 38°42' W 010°06'9611.9
2016-Jul-20 07:27N 40°18' W 010°07'263 8.7
2016-Jul-19 01:05N 43°41' W 006°22'611.7
2016-Jul-19 00:33N 43°40' W 006°14'  

Dump ship's entire track history